sensor_id;sensor_type;location;lat;lon;timestamp;P1;durP1;ratioP1;P2;durP2;ratioP2
15116;SDS011;7659;51.038;13.786;2022-09-20T00:01:12;0.13;;;0.13;;
15116;SDS011;7659;51.038;13.786;2022-09-20T00:03:39;0.27;;;0.27;;
15116;SDS011;7659;51.038;13.786;2022-09-20T00:06:07;0.20;;;0.20;;
15116;SDS011;7659;51.038;13.786;2022-09-20T00:08:34;0.20;;;0.20;;
15116;SDS011;7659;51.038;13.786;2022-09-20T00:11:01;0.10;;;0.10;;
15116;SDS011;7659;51.038;13.786;2022-09-20T00:13:31;0.10;;;0.10;;
15116;SDS011;7659;51.038;13.786;2022-09-20T00:15:57;0.10;;;0.10;;
15116;SDS011;7659;51.038;13.786;2022-09-20T00:18:23;0.20;;;0.20;;
15116;SDS011;7659;51.038;13.786;2022-09-20T00:20:49;0.20;;;0.20;;
15116;SDS011;7659;51.038;13.786;2022-09-20T00:23:15;0.20;;;0.20;;
15116;SDS011;7659;51.038;13.786;2022-09-20T00:25:41;0.20;;;0.20;;
15116;SDS011;7659;51.038;13.786;2022-09-20T00:28:08;0.20;;;0.20;;
15116;SDS011;7659;51.038;13.786;2022-09-20T00:30:34;0.20;;;0.20;;
15116;SDS011;7659;51.038;13.786;2022-09-20T00:33:00;0.20;;;0.20;;
15116;SDS011;7659;51.038;13.786;2022-09-20T00:35:26;0.30;;;0.30;;
15116;SDS011;7659;51.038;13.786;2022-09-20T00:37:53;0.20;;;0.20;;
15116;SDS011;7659;51.038;13.786;2022-09-20T00:40:19;0.23;;;0.23;;
15116;SDS011;7659;51.038;13.786;2022-09-20T00:42:46;0.20;;;0.20;;
15116;SDS011;7659;51.038;13.786;2022-09-20T00:48:46;0.10;;;0.10;;
15116;SDS011;7659;51.038;13.786;2022-09-20T00:50:53;0.20;;;0.20;;
15116;SDS011;7659;51.038;13.786;2022-09-20T00:53:28;0.20;;;0.20;;
15116;SDS011;7659;51.038;13.786;2022-09-20T00:55:56;0.20;;;0.20;;
15116;SDS011;7659;51.038;13.786;2022-09-20T00:58:26;0.20;;;0.20;;
15116;SDS011;7659;51.038;13.786;2022-09-20T01:00:53;0.20;;;0.20;;
15116;SDS011;7659;51.038;13.786;2022-09-20T01:03:19;0.20;;;0.20;;
15116;SDS011;7659;51.038;13.786;2022-09-20T01:05:47;0.20;;;0.20;;
15116;SDS011;7659;51.038;13.786;2022-09-20T01:08:14;0.20;;;0.20;;
15116;SDS011;7659;51.038;13.786;2022-09-20T01:10:41;0.20;;;0.20;;
15116;SDS011;7659;51.038;13.786;2022-09-20T01:13:07;0.20;;;0.20;;
15116;SDS011;7659;51.038;13.786;2022-09-20T01:15:33;0.20;;;0.20;;
15116;SDS011;7659;51.038;13.786;2022-09-20T01:18:00;0.20;;;0.20;;
15116;SDS011;7659;51.038;13.786;2022-09-20T01:20:28;0.20;;;0.20;;
15116;SDS011;7659;51.038;13.786;2022-09-20T01:25:48;0.20;;;0.20;;
15116;SDS011;7659;51.038;13.786;2022-09-20T01:28:22;0.20;;;0.20;;
15116;SDS011;7659;51.038;13.786;2022-09-20T01:30:55;0.13;;;0.13;;
15116;SDS011;7659;51.038;13.786;2022-09-20T01:36:18;0.20;;;0.20;;
15116;SDS011;7659;51.038;13.786;2022-09-20T01:44:06;0.20;;;0.20;;
15116;SDS011;7659;51.038;13.786;2022-09-20T01:46:38;0.20;;;0.20;;
15116;SDS011;7659;51.038;13.786;2022-09-20T01:55:23;0.10;;;0.10;;
15116;SDS011;7659;51.038;13.786;2022-09-20T02:00:32;0.10;;;0.10;;
15116;SDS011;7659;51.038;13.786;2022-09-20T02:06:07;0.20;;;0.20;;
15116;SDS011;7659;51.038;13.786;2022-09-20T02:08:48;0.20;;;0.20;;
15116;SDS011;7659;51.038;13.786;2022-09-20T02:11:39;0.10;;;0.10;;
15116;SDS011;7659;51.038;13.786;2022-09-20T02:30:02;0.20;;;0.20;;
15116;SDS011;7659;51.038;13.786;2022-09-20T02:32:50;0.17;;;0.17;;
15116;SDS011;7659;51.038;13.786;2022-09-20T02:37:59;0.20;;;0.20;;
15116;SDS011;7659;51.038;13.786;2022-09-20T02:51:38;0.20;;;0.20;;
15116;SDS011;7659;51.038;13.786;2022-09-20T02:54:27;0.20;;;0.20;;
15116;SDS011;7659;51.038;13.786;2022-09-20T02:57:13;0.20;;;0.20;;
15116;SDS011;7659;51.038;13.786;2022-09-20T03:02:31;0.20;;;0.20;;
15116;SDS011;7659;51.038;13.786;2022-09-20T03:05:12;0.20;;;0.20;;
15116;SDS011;7659;51.038;13.786;2022-09-20T03:13:31;0.20;;;0.20;;
15116;SDS011;7659;51.038;13.786;2022-09-20T03:16:06;0.30;;;0.30;;
15116;SDS011;7659;51.038;13.786;2022-09-20T03:24:38;0.20;;;0.20;;
15116;SDS011;7659;51.038;13.786;2022-09-20T03:30:23;0.10;;;0.10;;
15116;SDS011;7659;51.038;13.786;2022-09-20T03:36:05;0.20;;;0.20;;
15116;SDS011;7659;51.038;13.786;2022-09-20T03:49:42;0.20;;;0.20;;
15116;SDS011;7659;51.038;13.786;2022-09-20T04:00:24;0.20;;;0.20;;
15116;SDS011;7659;51.038;13.786;2022-09-20T04:05:54;0.20;;;0.20;;
15116;SDS011;7659;51.038;13.786;2022-09-20T04:11:11;0.20;;;0.20;;
15116;SDS011;7659;51.038;13.786;2022-09-20T04:13:49;0.20;;;0.20;;
15116;SDS011;7659;51.038;13.786;2022-09-20T04:19:00;0.20;;;0.20;;
15116;SDS011;7659;51.038;13.786;2022-09-20T04:21:43;0.20;;;0.20;;
15116;SDS011;7659;51.038;13.786;2022-09-20T04:24:11;0.20;;;0.20;;
15116;SDS011;7659;51.038;13.786;2022-09-20T04:26:43;0.20;;;0.20;;
15116;SDS011;7659;51.038;13.786;2022-09-20T04:29:24;0.20;;;0.20;;
15116;SDS011;7659;51.038;13.786;2022-09-20T04:34:34;0.20;;;0.20;;
15116;SDS011;7659;51.038;13.786;2022-09-20T04:37:35;0.20;;;0.20;;
15116;SDS011;7659;51.038;13.786;2022-09-20T04:40:08;0.20;;;0.20;;
15116;SDS011;7659;51.038;13.786;2022-09-20T04:51:38;0.20;;;0.20;;
15116;SDS011;7659;51.038;13.786;2022-09-20T05:00:11;0.20;;;0.20;;
15116;SDS011;7659;51.038;13.786;2022-09-20T05:05:38;0.10;;;0.10;;
15116;SDS011;7659;51.038;13.786;2022-09-20T05:17:41;0.20;;;0.20;;
15116;SDS011;7659;51.038;13.786;2022-09-20T05:28:38;0.20;;;0.20;;
15116;SDS011;7659;51.038;13.786;2022-09-20T05:31:14;0.10;;;0.10;;
15116;SDS011;7659;51.038;13.786;2022-09-20T05:39:27;0.20;;;0.20;;
15116;SDS011;7659;51.038;13.786;2022-09-20T05:41:57;0.20;;;0.20;;
15116;SDS011;7659;51.038;13.786;2022-09-20T05:49:46;0.20;;;0.20;;
15116;SDS011;7659;51.038;13.786;2022-09-20T06:00:36;0.20;;;0.20;;
15116;SDS011;7659;51.038;13.786;2022-09-20T06:13:56;0.20;;;0.20;;
15116;SDS011;7659;51.038;13.786;2022-09-20T06:16:39;0.10;;;0.10;;
15116;SDS011;7659;51.038;13.786;2022-09-20T06:19:19;0.23;;;0.23;;
15116;SDS011;7659;51.038;13.786;2022-09-20T06:22:08;0.20;;;0.20;;
15116;SDS011;7659;51.038;13.786;2022-09-20T06:25:00;0.10;;;0.10;;
15116;SDS011;7659;51.038;13.786;2022-09-20T06:27:32;0.20;;;0.20;;
15116;SDS011;7659;51.038;13.786;2022-09-20T06:30:03;0.20;;;0.20;;
15116;SDS011;7659;51.038;13.786;2022-09-20T06:32:30;0.10;;;0.10;;
15116;SDS011;7659;51.038;13.786;2022-09-20T06:34:56;0.20;;;0.20;;
15116;SDS011;7659;51.038;13.786;2022-09-20T06:40:30;0.10;;;0.10;;
15116;SDS011;7659;51.038;13.786;2022-09-20T06:43:15;0.20;;;0.20;;
15116;SDS011;7659;51.038;13.786;2022-09-20T06:45:41;0.10;;;0.10;;
15116;SDS011;7659;51.038;13.786;2022-09-20T06:48:07;0.10;;;0.10;;
15116;SDS011;7659;51.038;13.786;2022-09-20T06:50:36;0.20;;;0.20;;
15116;SDS011;7659;51.038;13.786;2022-09-20T06:53:02;0.20;;;0.20;;
15116;SDS011;7659;51.038;13.786;2022-09-20T06:55:29;0.20;;;0.20;;
15116;SDS011;7659;51.038;13.786;2022-09-20T06:57:55;0.20;;;0.20;;
15116;SDS011;7659;51.038;13.786;2022-09-20T07:00:21;0.10;;;0.10;;
15116;SDS011;7659;51.038;13.786;2022-09-20T07:02:46;0.10;;;0.10;;
15116;SDS011;7659;51.038;13.786;2022-09-20T07:05:13;0.20;;;0.20;;
15116;SDS011;7659;51.038;13.786;2022-09-20T07:07:40;0.20;;;0.20;;
15116;SDS011;7659;51.038;13.786;2022-09-20T07:10:05;0.20;;;0.20;;
15116;SDS011;7659;51.038;13.786;2022-09-20T07:12:31;0.13;;;0.13;;
15116;SDS011;7659;51.038;13.786;2022-09-20T07:14:59;0.20;;;0.20;;
15116;SDS011;7659;51.038;13.786;2022-09-20T07:17:24;0.20;;;0.20;;
15116;SDS011;7659;51.038;13.786;2022-09-20T07:19:50;0.20;;;0.20;;
15116;SDS011;7659;51.038;13.786;2022-09-20T07:22:16;0.20;;;0.20;;
15116;SDS011;7659;51.038;13.786;2022-09-20T07:24:41;0.20;;;0.20;;
15116;SDS011;7659;51.038;13.786;2022-09-20T07:27:09;0.20;;;0.20;;
15116;SDS011;7659;51.038;13.786;2022-09-20T07:29:35;0.20;;;0.20;;
15116;SDS011;7659;51.038;13.786;2022-09-20T07:32:01;0.20;;;0.20;;
15116;SDS011;7659;51.038;13.786;2022-09-20T07:34:27;0.20;;;0.20;;
15116;SDS011;7659;51.038;13.786;2022-09-20T07:36:54;0.10;;;0.10;;
15116;SDS011;7659;51.038;13.786;2022-09-20T07:39:21;0.20;;;0.20;;
15116;SDS011;7659;51.038;13.786;2022-09-20T07:41:47;0.20;;;0.20;;
15116;SDS011;7659;51.038;13.786;2022-09-20T07:44:14;0.20;;;0.20;;
15116;SDS011;7659;51.038;13.786;2022-09-20T07:46:51;0.10;;;0.10;;
15116;SDS011;7659;51.038;13.786;2022-09-20T07:49:22;0.20;;;0.20;;
15116;SDS011;7659;51.038;13.786;2022-09-20T07:51:48;0.20;;;0.20;;
15116;SDS011;7659;51.038;13.786;2022-09-20T07:54:14;0.23;;;0.23;;
15116;SDS011;7659;51.038;13.786;2022-09-20T07:56:40;0.17;;;0.17;;
15116;SDS011;7659;51.038;13.786;2022-09-20T07:59:06;0.20;;;0.20;;
15116;SDS011;7659;51.038;13.786;2022-09-20T08:01:31;0.20;;;0.20;;
15116;SDS011;7659;51.038;13.786;2022-09-20T08:03:57;0.20;;;0.20;;
15116;SDS011;7659;51.038;13.786;2022-09-20T08:06:23;0.20;;;0.20;;
15116;SDS011;7659;51.038;13.786;2022-09-20T08:08:49;0.20;;;0.20;;
15116;SDS011;7659;51.038;13.786;2022-09-20T08:11:17;0.20;;;0.20;;
15116;SDS011;7659;51.038;13.786;2022-09-20T08:13:48;0.20;;;0.20;;
15116;SDS011;7659;51.038;13.786;2022-09-20T08:16:14;0.20;;;0.20;;
15116;SDS011;7659;51.038;13.786;2022-09-20T08:18:50;0.20;;;0.20;;
15116;SDS011;7659;51.038;13.786;2022-09-20T08:21:18;0.23;;;0.23;;
15116;SDS011;7659;51.038;13.786;2022-09-20T08:23:44;0.20;;;0.20;;
15116;SDS011;7659;51.038;13.786;2022-09-20T08:26:13;0.30;;;0.30;;
15116;SDS011;7659;51.038;13.786;2022-09-20T08:28:42;0.30;;;0.30;;
15116;SDS011;7659;51.038;13.786;2022-09-20T08:31:09;0.23;;;0.23;;
15116;SDS011;7659;51.038;13.786;2022-09-20T08:33:38;0.20;;;0.20;;
15116;SDS011;7659;51.038;13.786;2022-09-20T08:36:05;0.20;;;0.20;;
15116;SDS011;7659;51.038;13.786;2022-09-20T08:38:32;0.20;;;0.20;;
15116;SDS011;7659;51.038;13.786;2022-09-20T08:41:00;0.20;;;0.20;;
15116;SDS011;7659;51.038;13.786;2022-09-20T08:43:31;0.20;;;0.20;;
15116;SDS011;7659;51.038;13.786;2022-09-20T08:46:00;0.20;;;0.20;;
15116;SDS011;7659;51.038;13.786;2022-09-20T08:48:28;0.30;;;0.30;;
15116;SDS011;7659;51.038;13.786;2022-09-20T08:50:58;0.20;;;0.20;;
15116;SDS011;7659;51.038;13.786;2022-09-20T08:53:25;0.20;;;0.20;;
15116;SDS011;7659;51.038;13.786;2022-09-20T08:55:53;0.20;;;0.20;;
15116;SDS011;7659;51.038;13.786;2022-09-20T08:58:22;0.27;;;0.27;;
15116;SDS011;7659;51.038;13.786;2022-09-20T09:00:48;0.10;;;0.10;;
15116;SDS011;7659;51.038;13.786;2022-09-20T09:03:14;0.20;;;0.20;;
15116;SDS011;7659;51.038;13.786;2022-09-20T09:05:45;0.20;;;0.20;;
15116;SDS011;7659;51.038;13.786;2022-09-20T09:08:13;0.27;;;0.27;;
15116;SDS011;7659;51.038;13.786;2022-09-20T09:10:47;0.20;;;0.20;;
15116;SDS011;7659;51.038;13.786;2022-09-20T09:14:00;0.20;;;0.20;;
15116;SDS011;7659;51.038;13.786;2022-09-20T09:16:12;0.20;;;0.20;;
15116;SDS011;7659;51.038;13.786;2022-09-20T09:18:43;0.27;;;0.27;;
15116;SDS011;7659;51.038;13.786;2022-09-20T09:21:43;0.20;;;0.20;;
15116;SDS011;7659;51.038;13.786;2022-09-20T09:24:06;0.20;;;0.20;;
15116;SDS011;7659;51.038;13.786;2022-09-20T09:26:38;0.20;;;0.20;;
15116;SDS011;7659;51.038;13.786;2022-09-20T09:29:07;0.20;;;0.20;;
15116;SDS011;7659;51.038;13.786;2022-09-20T09:31:53;0.20;;;0.20;;
15116;SDS011;7659;51.038;13.786;2022-09-20T09:34:26;0.30;;;0.30;;
15116;SDS011;7659;51.038;13.786;2022-09-20T09:36:53;0.30;;;0.30;;
15116;SDS011;7659;51.038;13.786;2022-09-20T09:39:24;0.20;;;0.20;;
15116;SDS011;7659;51.038;13.786;2022-09-20T09:41:52;0.20;;;0.20;;
15116;SDS011;7659;51.038;13.786;2022-09-20T09:46:49;0.17;;;0.17;;
15116;SDS011;7659;51.038;13.786;2022-09-20T09:49:16;0.30;;;0.30;;
15116;SDS011;7659;51.038;13.786;2022-09-20T09:54:21;0.30;;;0.30;;
15116;SDS011;7659;51.038;13.786;2022-09-20T10:02:21;0.30;;;0.30;;
15116;SDS011;7659;51.038;13.786;2022-09-20T10:05:04;0.20;;;0.20;;
15116;SDS011;7659;51.038;13.786;2022-09-20T10:07:51;0.20;;;0.20;;
15116;SDS011;7659;51.038;13.786;2022-09-20T10:10:42;0.20;;;0.20;;
15116;SDS011;7659;51.038;13.786;2022-09-20T10:16:28;0.20;;;0.20;;
15116;SDS011;7659;51.038;13.786;2022-09-20T10:24:47;0.23;;;0.23;;
15116;SDS011;7659;51.038;13.786;2022-09-20T10:27:21;0.20;;;0.20;;
15116;SDS011;7659;51.038;13.786;2022-09-20T10:30:03;0.20;;;0.20;;
15116;SDS011;7659;51.038;13.786;2022-09-20T10:40:43;0.30;;;0.30;;
15116;SDS011;7659;51.038;13.786;2022-09-20T10:47:00;0.27;;;0.27;;
15116;SDS011;7659;51.038;13.786;2022-09-20T10:57:35;0.20;;;0.20;;
15116;SDS011;7659;51.038;13.786;2022-09-20T11:08:22;0.30;;;0.30;;
15116;SDS011;7659;51.038;13.786;2022-09-20T11:10:56;0.20;;;0.20;;
15116;SDS011;7659;51.038;13.786;2022-09-20T11:13:41;0.20;;;0.20;;
15116;SDS011;7659;51.038;13.786;2022-09-20T11:24:10;0.30;;;0.30;;
15116;SDS011;7659;51.038;13.786;2022-09-20T11:26:44;0.20;;;0.20;;
15116;SDS011;7659;51.038;13.786;2022-09-20T11:29:19;0.20;;;0.20;;
15116;SDS011;7659;51.038;13.786;2022-09-20T11:31:51;0.20;;;0.20;;
15116;SDS011;7659;51.038;13.786;2022-09-20T11:34:24;0.30;;;0.30;;
15116;SDS011;7659;51.038;13.786;2022-09-20T11:36:54;0.20;;;0.20;;
15116;SDS011;7659;51.038;13.786;2022-09-20T11:39:34;0.30;;;0.30;;
15116;SDS011;7659;51.038;13.786;2022-09-20T11:42:18;0.23;;;0.23;;
15116;SDS011;7659;51.038;13.786;2022-09-20T11:44:45;0.30;;;0.30;;
15116;SDS011;7659;51.038;13.786;2022-09-20T11:53:44;0.30;;;0.30;;
15116;SDS011;7659;51.038;13.786;2022-09-20T11:56:12;0.30;;;0.30;;
15116;SDS011;7659;51.038;13.786;2022-09-20T11:58:45;0.20;;;0.20;;
15116;SDS011;7659;51.038;13.786;2022-09-20T12:01:13;0.30;;;0.30;;
15116;SDS011;7659;51.038;13.786;2022-09-20T12:03:40;0.30;;;0.30;;
15116;SDS011;7659;51.038;13.786;2022-09-20T12:08:56;0.20;;;0.20;;
15116;SDS011;7659;51.038;13.786;2022-09-20T12:11:25;0.27;;;0.27;;
15116;SDS011;7659;51.038;13.786;2022-09-20T12:16:35;0.30;;;0.30;;
15116;SDS011;7659;51.038;13.786;2022-09-20T12:19:05;0.30;;;0.30;;
15116;SDS011;7659;51.038;13.786;2022-09-20T12:24:56;0.30;;;0.30;;
15116;SDS011;7659;51.038;13.786;2022-09-20T12:30:05;0.27;;;0.27;;
15116;SDS011;7659;51.038;13.786;2022-09-20T12:32:42;0.30;;;0.30;;
15116;SDS011;7659;51.038;13.786;2022-09-20T12:35:50;0.20;;;0.20;;
15116;SDS011;7659;51.038;13.786;2022-09-20T12:38:30;0.20;;;0.20;;
15116;SDS011;7659;51.038;13.786;2022-09-20T12:41:03;0.20;;;0.20;;
15116;SDS011;7659;51.038;13.786;2022-09-20T12:43:32;0.30;;;0.30;;
15116;SDS011;7659;51.038;13.786;2022-09-20T12:45:59;0.30;;;0.30;;
15116;SDS011;7659;51.038;13.786;2022-09-20T12:48:25;0.20;;;0.20;;
15116;SDS011;7659;51.038;13.786;2022-09-20T12:51:05;0.30;;;0.30;;
15116;SDS011;7659;51.038;13.786;2022-09-20T12:54:00;0.30;;;0.30;;
15116;SDS011;7659;51.038;13.786;2022-09-20T12:56:31;0.30;;;0.30;;
15116;SDS011;7659;51.038;13.786;2022-09-20T12:59:00;0.27;;;0.27;;
15116;SDS011;7659;51.038;13.786;2022-09-20T13:01:34;0.23;;;0.23;;
15116;SDS011;7659;51.038;13.786;2022-09-20T13:10:22;0.30;;;0.30;;
15116;SDS011;7659;51.038;13.786;2022-09-20T13:21:39;0.50;;;0.50;;
15116;SDS011;7659;51.038;13.786;2022-09-20T13:24:05;0.50;;;0.50;;
15116;SDS011;7659;51.038;13.786;2022-09-20T13:26:33;0.60;;;0.60;;
15116;SDS011;7659;51.038;13.786;2022-09-20T13:29:01;0.70;;;0.70;;
15116;SDS011;7659;51.038;13.786;2022-09-20T13:31:30;0.60;;;0.60;;
15116;SDS011;7659;51.038;13.786;2022-09-20T13:36:43;0.80;;;0.80;;
15116;SDS011;7659;51.038;13.786;2022-09-20T13:39:20;0.80;;;0.80;;
15116;SDS011;7659;51.038;13.786;2022-09-20T13:41:59;0.90;;;0.90;;
15116;SDS011;7659;51.038;13.786;2022-09-20T13:44:27;0.98;;;0.98;;
15116;SDS011;7659;51.038;13.786;2022-09-20T13:46:57;0.55;;;0.55;;
15116;SDS011;7659;51.038;13.786;2022-09-20T13:49:23;0.40;;;0.40;;
15116;SDS011;7659;51.038;13.786;2022-09-20T13:51:49;0.32;;;0.32;;
15116;SDS011;7659;51.038;13.786;2022-09-20T13:54:16;0.30;;;0.30;;
15116;SDS011;7659;51.038;13.786;2022-09-20T13:56:42;0.30;;;0.30;;
15116;SDS011;7659;51.038;13.786;2022-09-20T13:59:09;0.20;;;0.20;;
15116;SDS011;7659;51.038;13.786;2022-09-20T14:01:38;0.20;;;0.20;;
15116;SDS011;7659;51.038;13.786;2022-09-20T14:04:07;0.20;;;0.20;;
15116;SDS011;7659;51.038;13.786;2022-09-20T14:06:38;0.20;;;0.20;;
15116;SDS011;7659;51.038;13.786;2022-09-20T14:09:04;0.20;;;0.20;;
15116;SDS011;7659;51.038;13.786;2022-09-20T14:11:31;0.22;;;0.22;;
15116;SDS011;7659;51.038;13.786;2022-09-20T14:14:02;0.20;;;0.20;;
15116;SDS011;7659;51.038;13.786;2022-09-20T14:16:30;0.20;;;0.20;;
15116;SDS011;7659;51.038;13.786;2022-09-20T14:18:57;0.10;;;0.10;;
15116;SDS011;7659;51.038;13.786;2022-09-20T14:21:25;0.20;;;0.20;;
15116;SDS011;7659;51.038;13.786;2022-09-20T14:23:52;0.10;;;0.10;;
15116;SDS011;7659;51.038;13.786;2022-09-20T14:26:23;0.20;;;0.20;;
15116;SDS011;7659;51.038;13.786;2022-09-20T14:31:54;0.20;;;0.20;;
15116;SDS011;7659;51.038;13.786;2022-09-20T14:34:22;0.20;;;0.20;;
15116;SDS011;7659;51.038;13.786;2022-09-20T14:36:47;0.10;;;0.10;;
15116;SDS011;7659;51.038;13.786;2022-09-20T14:39:14;0.20;;;0.20;;
15116;SDS011;7659;51.038;13.786;2022-09-20T14:41:41;0.20;;;0.20;;
15116;SDS011;7659;51.038;13.786;2022-09-20T14:44:53;0.10;;;0.10;;
15116;SDS011;7659;51.038;13.786;2022-09-20T14:46:57;0.20;;;0.20;;
15116;SDS011;7659;51.038;13.786;2022-09-20T14:51:48;0.20;;;0.20;;
15116;SDS011;7659;51.038;13.786;2022-09-20T14:56:50;0.20;;;0.20;;
15116;SDS011;7659;51.038;13.786;2022-09-20T15:02:03;0.20;;;0.20;;
15116;SDS011;7659;51.038;13.786;2022-09-20T15:04:35;0.20;;;0.20;;
15116;SDS011;7659;51.038;13.786;2022-09-20T15:07:08;0.20;;;0.20;;
15116;SDS011;7659;51.038;13.786;2022-09-20T15:09:35;0.23;;;0.23;;
15116;SDS011;7659;51.038;13.786;2022-09-20T15:12:05;0.37;;;0.37;;
15116;SDS011;7659;51.038;13.786;2022-09-20T15:14:36;0.30;;;0.30;;
15116;SDS011;7659;51.038;13.786;2022-09-20T15:17:04;0.30;;;0.30;;
15116;SDS011;7659;51.038;13.786;2022-09-20T15:19:30;0.20;;;0.20;;
15116;SDS011;7659;51.038;13.786;2022-09-20T15:21:55;0.20;;;0.20;;
15116;SDS011;7659;51.038;13.786;2022-09-20T15:24:21;0.20;;;0.20;;
15116;SDS011;7659;51.038;13.786;2022-09-20T15:26:47;0.20;;;0.20;;
15116;SDS011;7659;51.038;13.786;2022-09-20T15:29:14;0.20;;;0.20;;
15116;SDS011;7659;51.038;13.786;2022-09-20T15:31:41;0.20;;;0.20;;
15116;SDS011;7659;51.038;13.786;2022-09-20T15:34:07;0.20;;;0.20;;
15116;SDS011;7659;51.038;13.786;2022-09-20T15:36:33;0.20;;;0.20;;
15116;SDS011;7659;51.038;13.786;2022-09-20T15:38:58;0.30;;;0.30;;
15116;SDS011;7659;51.038;13.786;2022-09-20T15:41:24;0.20;;;0.20;;
15116;SDS011;7659;51.038;13.786;2022-09-20T15:43:50;0.20;;;0.20;;
15116;SDS011;7659;51.038;13.786;2022-09-20T15:46:16;0.20;;;0.20;;
15116;SDS011;7659;51.038;13.786;2022-09-20T15:48:44;0.20;;;0.20;;
15116;SDS011;7659;51.038;13.786;2022-09-20T15:51:10;0.10;;;0.10;;
15116;SDS011;7659;51.038;13.786;2022-09-20T15:56:06;0.20;;;0.20;;
15116;SDS011;7659;51.038;13.786;2022-09-20T15:58:46;0.17;;;0.17;;
15116;SDS011;7659;51.038;13.786;2022-09-20T16:01:13;0.20;;;0.20;;
15116;SDS011;7659;51.038;13.786;2022-09-20T16:03:40;0.23;;;0.23;;
15116;SDS011;7659;51.038;13.786;2022-09-20T16:06:07;0.20;;;0.20;;
15116;SDS011;7659;51.038;13.786;2022-09-20T16:08:33;0.20;;;0.20;;
15116;SDS011;7659;51.038;13.786;2022-09-20T16:11:00;0.20;;;0.20;;
15116;SDS011;7659;51.038;13.786;2022-09-20T16:15:57;0.20;;;0.20;;
15116;SDS011;7659;51.038;13.786;2022-09-20T16:18:24;0.20;;;0.20;;
15116;SDS011;7659;51.038;13.786;2022-09-20T16:21:09;0.10;;;0.10;;
15116;SDS011;7659;51.038;13.786;2022-09-20T16:23:39;0.20;;;0.20;;
15116;SDS011;7659;51.038;13.786;2022-09-20T16:26:06;0.20;;;0.20;;
15116;SDS011;7659;51.038;13.786;2022-09-20T16:28:37;0.20;;;0.20;;
15116;SDS011;7659;51.038;13.786;2022-09-20T16:31:04;0.20;;;0.20;;
15116;SDS011;7659;51.038;13.786;2022-09-20T16:33:31;0.20;;;0.20;;
15116;SDS011;7659;51.038;13.786;2022-09-20T16:35:58;0.20;;;0.20;;
15116;SDS011;7659;51.038;13.786;2022-09-20T16:38:24;0.20;;;0.20;;
15116;SDS011;7659;51.038;13.786;2022-09-20T16:40:50;0.23;;;0.23;;
15116;SDS011;7659;51.038;13.786;2022-09-20T16:43:16;0.20;;;0.20;;
15116;SDS011;7659;51.038;13.786;2022-09-20T16:45:47;0.20;;;0.20;;
15116;SDS011;7659;51.038;13.786;2022-09-20T16:48:12;0.20;;;0.20;;
15116;SDS011;7659;51.038;13.786;2022-09-20T16:50:38;0.13;;;0.13;;
15116;SDS011;7659;51.038;13.786;2022-09-20T16:53:04;0.20;;;0.20;;
15116;SDS011;7659;51.038;13.786;2022-09-20T16:55:29;0.20;;;0.20;;
15116;SDS011;7659;51.038;13.786;2022-09-20T16:57:55;0.20;;;0.20;;
15116;SDS011;7659;51.038;13.786;2022-09-20T17:00:20;0.20;;;0.20;;
15116;SDS011;7659;51.038;13.786;2022-09-20T17:02:49;0.10;;;0.10;;
15116;SDS011;7659;51.038;13.786;2022-09-20T17:05:15;0.20;;;0.20;;
15116;SDS011;7659;51.038;13.786;2022-09-20T17:07:41;0.20;;;0.20;;
15116;SDS011;7659;51.038;13.786;2022-09-20T17:10:08;0.13;;;0.13;;
15116;SDS011;7659;51.038;13.786;2022-09-20T17:12:36;0.20;;;0.20;;
15116;SDS011;7659;51.038;13.786;2022-09-20T17:15:12;0.20;;;0.20;;
15116;SDS011;7659;51.038;13.786;2022-09-20T17:17:38;0.20;;;0.20;;
15116;SDS011;7659;51.038;13.786;2022-09-20T17:20:04;0.20;;;0.20;;
15116;SDS011;7659;51.038;13.786;2022-09-20T17:22:32;0.20;;;0.20;;
15116;SDS011;7659;51.038;13.786;2022-09-20T17:24:57;0.20;;;0.20;;
15116;SDS011;7659;51.038;13.786;2022-09-20T17:27:23;0.20;;;0.20;;
15116;SDS011;7659;51.038;13.786;2022-09-20T17:29:49;0.20;;;0.20;;
15116;SDS011;7659;51.038;13.786;2022-09-20T17:32:15;0.20;;;0.20;;
15116;SDS011;7659;51.038;13.786;2022-09-20T17:34:41;0.10;;;0.10;;
15116;SDS011;7659;51.038;13.786;2022-09-20T17:37:07;0.20;;;0.20;;
15116;SDS011;7659;51.038;13.786;2022-09-20T17:39:32;0.20;;;0.20;;
15116;SDS011;7659;51.038;13.786;2022-09-20T17:41:58;0.10;;;0.10;;
15116;SDS011;7659;51.038;13.786;2022-09-20T17:44:23;0.10;;;0.10;;
15116;SDS011;7659;51.038;13.786;2022-09-20T17:46:49;0.20;;;0.20;;
15116;SDS011;7659;51.038;13.786;2022-09-20T17:49:16;0.10;;;0.10;;
15116;SDS011;7659;51.038;13.786;2022-09-20T17:51:48;0.10;;;0.10;;
15116;SDS011;7659;51.038;13.786;2022-09-20T17:54:15;0.20;;;0.20;;
15116;SDS011;7659;51.038;13.786;2022-09-20T17:56:44;0.20;;;0.20;;
15116;SDS011;7659;51.038;13.786;2022-09-20T17:59:12;0.10;;;0.10;;
15116;SDS011;7659;51.038;13.786;2022-09-20T18:01:40;0.10;;;0.10;;
15116;SDS011;7659;51.038;13.786;2022-09-20T18:05:58;0.20;;;0.20;;
15116;SDS011;7659;51.038;13.786;2022-09-20T18:08:24;0.20;;;0.20;;
15116;SDS011;7659;51.038;13.786;2022-09-20T18:10:56;0.20;;;0.20;;
15116;SDS011;7659;51.038;13.786;2022-09-20T18:13:23;0.20;;;0.20;;
15116;SDS011;7659;51.038;13.786;2022-09-20T18:15:51;0.20;;;0.20;;
15116;SDS011;7659;51.038;13.786;2022-09-20T18:18:17;0.20;;;0.20;;
15116;SDS011;7659;51.038;13.786;2022-09-20T18:20:44;0.20;;;0.20;;
15116;SDS011;7659;51.038;13.786;2022-09-20T18:23:10;0.20;;;0.20;;
15116;SDS011;7659;51.038;13.786;2022-09-20T18:25:35;0.20;;;0.20;;
15116;SDS011;7659;51.038;13.786;2022-09-20T18:28:21;0.23;;;0.23;;
15116;SDS011;7659;51.038;13.786;2022-09-20T18:30:47;0.20;;;0.20;;
15116;SDS011;7659;51.038;13.786;2022-09-20T18:33:15;0.10;;;0.10;;
15116;SDS011;7659;51.038;13.786;2022-09-20T18:35:41;0.10;;;0.10;;
15116;SDS011;7659;51.038;13.786;2022-09-20T18:38:07;0.10;;;0.10;;
15116;SDS011;7659;51.038;13.786;2022-09-20T18:40:33;0.20;;;0.20;;
15116;SDS011;7659;51.038;13.786;2022-09-20T18:43:03;0.10;;;0.10;;
15116;SDS011;7659;51.038;13.786;2022-09-20T18:45:29;0.20;;;0.20;;
15116;SDS011;7659;51.038;13.786;2022-09-20T18:47:55;0.10;;;0.10;;
15116;SDS011;7659;51.038;13.786;2022-09-20T18:50:24;0.20;;;0.20;;
15116;SDS011;7659;51.038;13.786;2022-09-20T18:52:51;0.13;;;0.13;;
15116;SDS011;7659;51.038;13.786;2022-09-20T18:55:17;0.20;;;0.20;;
15116;SDS011;7659;51.038;13.786;2022-09-20T18:57:43;0.10;;;0.10;;
15116;SDS011;7659;51.038;13.786;2022-09-20T19:00:12;0.10;;;0.10;;
15116;SDS011;7659;51.038;13.786;2022-09-20T19:05:27;0.20;;;0.20;;
15116;SDS011;7659;51.038;13.786;2022-09-20T19:08:26;0.10;;;0.10;;
15116;SDS011;7659;51.038;13.786;2022-09-20T19:11:09;0.20;;;0.20;;
15116;SDS011;7659;51.038;13.786;2022-09-20T19:13:54;0.20;;;0.20;;
15116;SDS011;7659;51.038;13.786;2022-09-20T19:16:34;0.20;;;0.20;;
15116;SDS011;7659;51.038;13.786;2022-09-20T19:22:21;0.10;;;0.10;;
15116;SDS011;7659;51.038;13.786;2022-09-20T19:25:09;0.10;;;0.10;;
15116;SDS011;7659;51.038;13.786;2022-09-20T19:27:56;0.20;;;0.20;;
15116;SDS011;7659;51.038;13.786;2022-09-20T19:30:22;0.20;;;0.20;;
15116;SDS011;7659;51.038;13.786;2022-09-20T19:32:47;0.10;;;0.10;;
15116;SDS011;7659;51.038;13.786;2022-09-20T19:35:15;0.10;;;0.10;;
15116;SDS011;7659;51.038;13.786;2022-09-20T19:46:04;0.20;;;0.20;;
15116;SDS011;7659;51.038;13.786;2022-09-20T19:48:38;0.20;;;0.20;;
15116;SDS011;7659;51.038;13.786;2022-09-20T19:51:08;0.10;;;0.10;;
15116;SDS011;7659;51.038;13.786;2022-09-20T19:53:35;0.10;;;0.10;;
15116;SDS011;7659;51.038;13.786;2022-09-20T19:58:38;0.10;;;0.10;;
15116;SDS011;7659;51.038;13.786;2022-09-20T20:01:06;0.20;;;0.20;;
15116;SDS011;7659;51.038;13.786;2022-09-20T20:03:33;0.17;;;0.17;;
15116;SDS011;7659;51.038;13.786;2022-09-20T20:06:03;0.13;;;0.13;;
15116;SDS011;7659;51.038;13.786;2022-09-20T20:08:41;0.20;;;0.20;;